createdAt,value
2023-01-09T00:00:29.891Z,48.47
2023-01-09T00:02:57.091Z,59.70
2023-01-09T00:05:24.343Z,53.37
2023-01-09T00:07:51.546Z,58.70
2023-01-09T00:10:18.711Z,56.07
2023-01-09T00:12:45.982Z,51.37
2023-01-09T00:15:13.427Z,50.70
2023-01-09T00:17:40.876Z,58.23
2023-01-09T00:20:09.633Z,57.67
2023-01-09T00:22:37.751Z,61.73
2023-01-09T00:25:05.337Z,51.27
2023-01-09T00:27:33.399Z,50.17
2023-01-09T00:30:00.795Z,55.63
2023-01-09T00:32:28.308Z,53.80
2023-01-09T00:34:56.394Z,65.90
2023-01-09T00:37:23.973Z,58.23
2023-01-09T00:39:51.372Z,59.93
2023-01-09T00:42:23.312Z,64.07
2023-01-09T00:44:53.102Z,64.57
2023-01-09T00:47:46.320Z,57.57
2023-01-09T00:50:24.137Z,56.07
2023-01-09T00:52:52.618Z,57.30
2023-01-09T00:55:19.806Z,54.60
2023-01-09T00:57:47.011Z,54.63
2023-01-09T01:00:14.646Z,46.20
2023-01-09T01:02:41.987Z,46.83
2023-01-09T01:05:28.384Z,47.50
2023-01-09T01:07:55.568Z,44.03
2023-01-09T01:10:24.638Z,50.83
2023-01-09T01:12:52.573Z,45.83
2023-01-09T01:15:20.560Z,48.77
2023-01-09T01:17:48.132Z,51.17
2023-01-09T01:20:16.826Z,46.67
2023-01-09T01:22:44.151Z,49.33
2023-01-09T01:25:12.511Z,49.00
2023-01-09T01:27:40.052Z,44.77
2023-01-09T01:30:09.721Z,46.17
2023-01-09T01:32:37.469Z,40.83
2023-01-09T01:35:04.848Z,46.13
2023-01-09T01:37:32.282Z,43.83
2023-01-09T01:39:59.457Z,48.37
2023-01-09T01:42:26.646Z,49.23
2023-01-09T01:44:56.848Z,50.30
2023-01-09T01:47:26.200Z,46.43
2023-01-09T01:49:53.604Z,48.50
2023-01-09T01:52:21.520Z,44.03
2023-01-09T01:54:49.347Z,45.30
2023-01-09T01:57:16.577Z,44.13
2023-01-09T01:59:50.230Z,49.53
2023-01-09T02:02:21.931Z,47.50
2023-01-09T02:04:50.426Z,49.90
2023-01-09T02:07:17.576Z,45.40
2023-01-09T02:09:45.135Z,45.50
2023-01-09T02:12:30.149Z,47.47
2023-01-09T02:14:58.413Z,48.70
2023-01-09T02:17:31.620Z,47.37
2023-01-09T02:20:04.691Z,44.50
2023-01-09T02:22:45.692Z,45.33
2023-01-09T02:25:31.567Z,50.67
2023-01-09T02:28:01.960Z,50.63
2023-01-09T02:30:34.926Z,49.87
2023-01-09T02:33:25.466Z,52.37
2023-01-09T02:35:52.632Z,50.80
2023-01-09T02:38:33.658Z,53.60
2023-01-09T02:41:03.579Z,48.30
2023-01-09T02:43:31.272Z,48.30
2023-01-09T02:45:58.571Z,47.60
2023-01-09T02:48:25.862Z,49.27
2023-01-09T02:51:11.955Z,46.80
2023-01-09T02:53:45.154Z,45.20
2023-01-09T02:56:32.397Z,43.60
2023-01-09T02:59:08.123Z,45.30
2023-01-09T03:01:52.241Z,44.87
2023-01-09T03:04:19.529Z,43.00
2023-01-09T03:06:54.287Z,42.63
2023-01-09T03:09:22.752Z,49.73
2023-01-09T03:12:25.569Z,50.53
2023-01-09T03:14:54.124Z,49.73
2023-01-09T03:17:25.598Z,46.80
2023-01-09T03:19:54.043Z,51.93
2023-01-09T03:22:21.192Z,45.87
2023-01-09T03:24:48.596Z,44.27
2023-01-09T03:27:15.836Z,46.37
2023-01-09T03:29:43.045Z,49.97
2023-01-09T03:32:10.271Z,51.97
2023-01-09T03:34:37.579Z,49.80
2023-01-09T03:37:05.158Z,50.50
2023-01-09T03:39:32.885Z,47.70
2023-01-09T03:42:00.248Z,47.43
2023-01-09T03:44:27.429Z,44.60
2023-01-09T03:46:54.586Z,48.83
2023-01-09T03:49:21.811Z,45.00
2023-01-09T03:51:48.956Z,47.57
2023-01-09T03:54:16.115Z,48.93
2023-01-09T03:56:43.323Z,49.57
2023-01-09T03:59:10.475Z,51.97
2023-01-09T04:01:37.769Z,52.10
2023-01-09T04:04:05.163Z,48.87
2023-01-09T04:06:32.398Z,47.03
2023-01-09T04:08:59.621Z,47.87
2023-01-09T04:11:26.820Z,50.67
2023-01-09T04:13:54.207Z,44.80
2023-01-09T04:16:21.519Z,50.90
2023-01-09T04:18:48.718Z,47.83
2023-01-09T04:21:15.843Z,48.40
2023-01-09T04:23:43.040Z,43.93
2023-01-09T04:26:10.250Z,49.90
2023-01-09T04:28:37.489Z,52.00
2023-01-09T04:31:05.273Z,52.20
2023-01-09T04:33:32.516Z,46.00
2023-01-09T04:35:59.770Z,44.97
2023-01-09T04:38:27.523Z,46.50
2023-01-09T04:40:54.855Z,42.60
2023-01-09T04:43:22.456Z,44.00
2023-01-09T04:45:49.682Z,46.63
2023-01-09T04:48:16.876Z,43.87
2023-01-09T04:50:44.157Z,47.07
2023-01-09T04:53:11.528Z,41.33
2023-01-09T04:55:38.822Z,43.83
2023-01-09T04:58:05.992Z,39.77
2023-01-09T05:00:33.350Z,40.23
2023-01-09T05:03:02.795Z,44.67
2023-01-09T05:05:30.188Z,37.00
2023-01-09T05:07:57.356Z,41.37
2023-01-09T05:10:24.466Z,51.37
2023-01-09T05:12:52.576Z,42.33
2023-01-09T05:15:19.776Z,38.47
2023-01-09T05:17:46.967Z,42.37
2023-01-09T05:20:14.220Z,47.97
2023-01-09T05:22:41.371Z,42.07
2023-01-09T05:25:08.766Z,42.57
2023-01-09T05:27:36.080Z,46.13
2023-01-09T05:30:03.222Z,45.43
2023-01-09T05:32:30.415Z,48.40
2023-01-09T05:34:57.659Z,38.40
2023-01-09T05:37:24.823Z,48.97
2023-01-09T05:39:51.963Z,43.80
2023-01-09T05:42:19.141Z,43.37
2023-01-09T05:44:46.314Z,50.57
2023-01-09T05:47:13.619Z,43.27
2023-01-09T05:49:41.105Z,47.77
2023-01-09T05:52:08.612Z,48.27
2023-01-09T05:54:38.796Z,44.57
2023-01-09T05:57:05.932Z,37.53
2023-01-09T05:59:33.100Z,45.73
2023-01-09T06:02:00.593Z,53.70
2023-01-09T06:04:30.001Z,47.80
2023-01-09T06:06:57.376Z,44.53
2023-01-09T06:09:24.830Z,46.23
2023-01-09T06:11:52.087Z,51.37
2023-01-09T06:14:19.268Z,55.77
2023-01-09T06:16:46.469Z,45.33
2023-01-09T06:19:13.892Z,45.27
2023-01-09T06:21:41.082Z,44.27
2023-01-09T06:24:08.488Z,52.33
2023-01-09T06:26:35.780Z,48.87
2023-01-09T06:29:03.014Z,51.17
2023-01-09T06:31:30.293Z,46.43
2023-01-09T06:33:57.688Z,44.97
2023-01-09T06:36:24.940Z,46.80
2023-01-09T06:38:52.164Z,46.70
2023-01-09T06:41:19.373Z,54.77
2023-01-09T06:43:46.578Z,46.23
2023-01-09T06:46:13.961Z,44.00
2023-01-09T06:48:41.426Z,48.93
2023-01-09T06:51:08.648Z,51.07
2023-01-09T06:53:35.944Z,47.27
2023-01-09T06:56:03.464Z,45.33
2023-01-09T06:58:30.701Z,48.23
2023-01-09T07:00:59.318Z,42.53
2023-01-09T07:03:26.584Z,44.93
2023-01-09T07:05:53.753Z,51.87
2023-01-09T07:08:21.016Z,44.53
2023-01-09T07:10:48.177Z,46.13
2023-01-09T07:13:15.335Z,43.03
2023-01-09T07:15:42.565Z,50.57
2023-01-09T07:18:09.808Z,45.97
2023-01-09T07:20:37.000Z,51.00
2023-01-09T07:23:04.140Z,52.10
2023-01-09T07:25:31.337Z,49.47
2023-01-09T07:27:58.547Z,48.33
2023-01-09T07:30:25.743Z,49.97
2023-01-09T07:32:53.873Z,52.83
2023-01-09T07:35:20.994Z,54.73
2023-01-09T07:37:48.313Z,49.13
2023-01-09T07:40:15.451Z,55.83
2023-01-09T07:42:42.650Z,56.23
2023-01-09T07:45:10.019Z,56.33
2023-01-09T07:47:37.260Z,59.67
2023-01-09T07:50:04.565Z,59.57
2023-01-09T07:52:31.787Z,54.07
2023-01-09T07:54:58.967Z,55.07
2023-01-09T07:57:26.355Z,62.77
2023-01-09T07:59:53.571Z,53.70
2023-01-09T08:02:20.972Z,63.07
2023-01-09T08:04:48.453Z,64.20
2023-01-09T08:07:15.673Z,57.50
2023-01-09T08:09:42.815Z,62.67
2023-01-09T08:12:09.983Z,63.47
2023-01-09T08:14:37.130Z,62.27
2023-01-09T08:17:04.336Z,59.53
2023-01-09T08:19:31.496Z,64.47
2023-01-09T08:21:58.670Z,60.70
2023-01-09T08:24:25.927Z,64.23
2023-01-09T08:26:53.120Z,60.53
2023-01-09T08:29:20.330Z,58.43
2023-01-09T08:31:47.745Z,60.70
2023-01-09T08:34:15.119Z,62.13
2023-01-09T08:36:42.287Z,67.07
2023-01-09T08:39:10.231Z,57.37
2023-01-09T08:41:56.204Z,64.07
2023-01-09T08:44:42.024Z,57.63
2023-01-09T08:47:09.493Z,60.70
2023-01-09T08:49:37.816Z,58.53
2023-01-09T08:52:05.669Z,64.23
2023-01-09T08:54:32.844Z,62.80
2023-01-09T08:57:00.122Z,61.20
2023-01-09T08:59:27.411Z,60.73
2023-01-09T09:01:54.663Z,60.60
2023-01-09T09:04:21.920Z,55.00
2023-01-09T09:06:49.105Z,61.03
2023-01-09T09:09:16.269Z,56.73
2023-01-09T09:11:43.579Z,58.20
2023-01-09T09:14:29.387Z,57.97
2023-01-09T09:16:56.568Z,54.40
2023-01-09T09:19:23.740Z,54.93
2023-01-09T09:21:50.967Z,59.13
2023-01-09T09:24:18.278Z,65.97
2023-01-09T09:26:45.427Z,65.57
2023-01-09T09:29:12.922Z,66.33
2023-01-09T09:31:40.536Z,80.60
2023-01-09T09:34:08.188Z,77.57
2023-01-09T09:36:35.441Z,66.23
2023-01-09T09:39:02.850Z,77.07
2023-01-09T09:41:51.520Z,65.73
2023-01-09T09:44:52.695Z,72.17
2023-01-09T09:47:34.078Z,66.70
2023-01-09T09:50:01.300Z,75.50
2023-01-09T09:52:47.582Z,78.30
2023-01-09T09:55:41.252Z,71.10
2023-01-09T09:58:28.935Z,72.63
2023-01-09T10:00:56.941Z,62.10
2023-01-09T10:03:41.057Z,65.83
2023-01-09T10:06:26.194Z,65.43
2023-01-09T10:08:53.381Z,70.40
2023-01-09T10:11:31.661Z,68.23
2023-01-09T10:14:06.280Z,68.30
2023-01-09T10:16:44.489Z,66.77
2023-01-09T10:19:19.391Z,63.50
2023-01-09T10:21:53.355Z,64.87
2023-01-09T10:24:33.048Z,59.73
2023-01-09T10:27:03.001Z,66.80
2023-01-09T10:29:30.452Z,68.13
2023-01-09T10:32:10.064Z,64.87
2023-01-09T10:34:58.320Z,67.77
2023-01-09T10:37:46.674Z,71.27
2023-01-09T10:40:13.805Z,64.53
2023-01-09T10:42:47.684Z,77.97
2023-01-09T10:45:14.808Z,75.07
2023-01-09T10:47:43.210Z,73.03
2023-01-09T10:50:36.853Z,75.70
2023-01-09T10:53:08.734Z,69.87
2023-01-09T10:55:45.432Z,73.07
2023-01-09T10:58:13.589Z,76.60
2023-01-09T11:00:41.320Z,68.93
2023-01-09T11:03:13.223Z,71.20
2023-01-09T11:05:40.578Z,63.70
2023-01-09T11:08:13.491Z,67.70
2023-01-09T11:10:57.188Z,63.47
2023-01-09T11:13:24.445Z,64.67
2023-01-09T11:16:10.826Z,71.57
2023-01-09T11:18:48.405Z,65.97
2023-01-09T11:21:39.241Z,77.53
2023-01-09T11:24:22.090Z,73.10
2023-01-09T11:26:50.662Z,64.40
2023-01-09T11:29:19.186Z,68.97
2023-01-09T11:31:54.419Z,66.23
2023-01-09T11:34:23.730Z,59.70
2023-01-09T11:36:52.557Z,63.37
2023-01-09T11:39:30.541Z,67.87
2023-01-09T11:42:02.303Z,70.13
2023-01-09T11:44:30.777Z,74.63
2023-01-09T11:46:58.118Z,74.67
2023-01-09T11:49:26.743Z,80.80
2023-01-09T11:52:06.225Z,71.93
2023-01-09T11:54:35.228Z,76.30
2023-01-09T11:57:02.456Z,78.53
2023-01-09T11:59:30.868Z,63.97
2023-01-09T12:02:13.467Z,70.47
2023-01-09T12:04:49.005Z,81.03
2023-01-09T12:07:31.517Z,88.47
2023-01-09T12:10:17.513Z,76.77
2023-01-09T12:12:58.324Z,65.43
2023-01-09T12:15:44.187Z,74.70
2023-01-09T12:18:26.929Z,71.20
2023-01-09T12:21:07.084Z,82.70
2023-01-09T12:23:40.483Z,78.60
2023-01-09T12:26:14.348Z,66.53
2023-01-09T12:28:51.019Z,59.53
2023-01-09T12:31:27.089Z,52.60
2023-01-09T12:34:12.590Z,58.97
2023-01-09T12:36:53.858Z,54.67
2023-01-09T12:39:30.075Z,55.20
2023-01-09T12:42:08.942Z,53.77
2023-01-09T12:44:52.818Z,62.43
2023-01-09T12:47:20.186Z,53.97
2023-01-09T12:49:59.739Z,58.20
2023-01-09T12:52:33.797Z,59.07
2023-01-09T12:55:05.087Z,56.77
2023-01-09T12:57:35.710Z,58.67
2023-01-09T13:00:21.383Z,59.00
2023-01-09T13:03:12.128Z,58.13
2023-01-09T13:05:48.066Z,58.60
2023-01-09T13:08:18.421Z,57.77
2023-01-09T13:10:47.954Z,58.23
2023-01-09T13:13:31.694Z,59.07
2023-01-09T13:16:00.311Z,60.93
2023-01-09T13:18:33.993Z,65.00
2023-01-09T13:21:01.430Z,76.07
2023-01-09T13:23:36.935Z,79.70
2023-01-09T13:26:08.823Z,67.53
2023-01-09T13:28:57.135Z,70.63
2023-01-09T13:31:24.336Z,74.70
2023-01-09T13:33:58.956Z,70.77
2023-01-09T13:36:33.034Z,67.43
2023-01-09T13:39:00.998Z,68.53
2023-01-09T13:41:47.588Z,74.67
2023-01-09T13:44:32.953Z,67.60
2023-01-09T13:47:02.413Z,63.70
2023-01-09T13:49:29.554Z,65.07
2023-01-09T13:51:58.104Z,61.57
2023-01-09T13:54:44.080Z,55.83
2023-01-09T13:57:31.568Z,58.40
2023-01-09T14:00:18.990Z,51.40
2023-01-09T14:02:47.174Z,56.70
2023-01-09T14:05:26.364Z,51.33
2023-01-09T14:08:03.123Z,64.50
2023-01-09T14:10:31.931Z,53.63
2023-01-09T14:12:59.164Z,53.70
2023-01-09T14:15:26.846Z,54.30
2023-01-09T14:18:01.131Z,55.37
2023-01-09T14:20:37.901Z,75.43
2023-01-09T14:23:28.159Z,87.00
2023-01-09T14:25:54.410Z,78.33
2023-01-09T14:28:26.643Z,59.00
2023-01-09T14:30:53.890Z,63.03
2023-01-09T14:33:25.246Z,53.97
2023-01-09T14:36:00.496Z,59.97
2023-01-09T14:38:33.578Z,51.90
2023-01-09T14:41:02.976Z,53.87
2023-01-09T14:43:43.784Z,56.80
2023-01-09T14:46:15.552Z,57.37
2023-01-09T14:48:52.193Z,61.40
2023-01-09T14:51:20.963Z,58.20
2023-01-09T14:53:49.953Z,56.23
2023-01-09T14:56:28.728Z,56.87
2023-01-09T14:59:15.075Z,62.77
2023-01-09T15:01:44.563Z,66.80
2023-01-09T15:04:34.693Z,60.77
2023-01-09T15:07:02.741Z,68.33
2023-01-09T15:09:29.942Z,75.30
2023-01-09T15:12:02.103Z,75.97
2023-01-09T15:14:39.878Z,76.10
2023-01-09T15:17:08.321Z,67.20
2023-01-09T15:19:35.658Z,65.33
2023-01-09T15:22:04.359Z,60.23
2023-01-09T15:24:34.258Z,62.97
2023-01-09T15:27:03.189Z,58.17
2023-01-09T15:29:30.432Z,56.40
2023-01-09T15:32:01.275Z,54.27
2023-01-09T15:34:29.623Z,52.93
2023-01-09T15:36:56.884Z,50.57
2023-01-09T15:39:28.487Z,50.13
2023-01-09T15:42:14.747Z,47.47
2023-01-09T15:44:43.507Z,44.23
2023-01-09T15:47:16.106Z,45.40
2023-01-09T15:49:43.703Z,45.03
2023-01-09T15:52:15.153Z,45.80
2023-01-09T15:54:43.367Z,43.23
2023-01-09T15:57:26.029Z,39.40
2023-01-09T15:59:57.230Z,44.97
2023-01-09T16:02:44.031Z,44.13
2023-01-09T16:05:18.453Z,49.83
2023-01-09T16:07:53.018Z,43.37
2023-01-09T16:10:46.617Z,46.83
2023-01-09T16:13:15.631Z,45.40
2023-01-09T16:15:45.094Z,39.33
2023-01-09T16:18:18.260Z,42.60
2023-01-09T16:20:46.231Z,39.93
2023-01-09T16:23:19.161Z,45.40
2023-01-09T16:25:46.819Z,38.83
2023-01-09T16:28:20.639Z,40.23
2023-01-09T16:31:08.815Z,44.07
2023-01-09T16:33:36.121Z,43.50
2023-01-09T16:36:05.287Z,45.10
2023-01-09T16:38:32.531Z,41.77
2023-01-09T16:41:19.646Z,45.73
2023-01-09T16:43:47.087Z,47.17
2023-01-09T16:46:15.850Z,45.63
2023-01-09T16:48:43.122Z,45.40
2023-01-09T16:51:17.630Z,37.47
2023-01-09T16:53:45.196Z,41.00
2023-01-09T16:56:30.848Z,36.97
2023-01-09T16:58:58.471Z,34.57
2023-01-09T17:01:25.792Z,33.03
2023-01-09T17:03:53.137Z,33.53
2023-01-09T17:06:23.172Z,37.00
2023-01-09T17:08:51.565Z,38.77
2023-01-09T17:11:23.123Z,34.87
2023-01-09T17:13:50.519Z,31.37
2023-01-09T17:16:19.500Z,29.60
2023-01-09T17:18:46.881Z,30.07
2023-01-09T17:21:19.043Z,30.43
2023-01-09T17:23:46.938Z,34.37
2023-01-09T17:26:37.729Z,35.83
2023-01-09T17:29:05.360Z,34.97
2023-01-09T17:31:32.789Z,37.27
2023-01-09T17:34:00.038Z,35.63
2023-01-09T17:36:32.206Z,35.77
2023-01-09T17:39:00.441Z,35.23
2023-01-09T17:41:29.209Z,37.83
2023-01-09T17:44:05.756Z,35.47
2023-01-09T17:46:34.078Z,34.80
2023-01-09T17:49:02.156Z,31.37
2023-01-09T17:51:29.844Z,34.50
2023-01-09T17:53:57.228Z,29.87
2023-01-09T17:56:34.889Z,31.03
2023-01-09T17:59:02.446Z,29.33
2023-01-09T18:01:29.685Z,29.77
2023-01-09T18:03:56.927Z,32.77
2023-01-09T18:06:24.928Z,27.73
2023-01-09T18:08:52.182Z,28.77
2023-01-09T18:11:20.305Z,32.37
2023-01-09T18:13:48.848Z,31.07
2023-01-09T18:16:20.709Z,33.37
2023-01-09T18:18:48.349Z,31.73
2023-01-09T18:21:16.522Z,30.30
2023-01-09T18:23:43.708Z,33.13
2023-01-09T18:26:18.494Z,28.77
2023-01-09T18:28:45.676Z,27.07
2023-01-09T18:31:15.509Z,28.43
2023-01-09T18:33:42.667Z,29.03
2023-01-09T18:36:10.997Z,29.33
2023-01-09T18:38:38.196Z,33.63
2023-01-09T18:41:05.779Z,31.87
2023-01-09T18:43:33.118Z,30.47
2023-01-09T18:46:00.395Z,31.20
2023-01-09T18:48:27.767Z,31.90
2023-01-09T18:51:02.897Z,31.60
2023-01-09T18:53:30.416Z,31.10
2023-01-09T18:55:57.579Z,26.80
2023-01-09T18:58:24.840Z,27.50
2023-01-09T19:00:58.015Z,23.70
2023-01-09T19:03:25.342Z,25.63
2023-01-09T19:05:52.492Z,24.50
2023-01-09T19:08:21.501Z,22.97
2023-01-09T19:10:52.710Z,34.43
2023-01-09T19:13:19.951Z,28.07
2023-01-09T19:15:47.139Z,29.03
2023-01-09T19:18:15.759Z,29.50
2023-01-09T19:20:43.032Z,30.17
2023-01-09T19:23:10.239Z,32.10
2023-01-09T19:25:37.415Z,74.87
2023-01-09T19:28:04.651Z,89.50
2023-01-09T19:30:31.981Z,74.50
2023-01-09T19:32:59.133Z,94.33
2023-01-09T19:35:26.312Z,115.67
2023-01-09T19:37:53.600Z,99.27
2023-01-09T19:40:20.818Z,110.10
2023-01-09T19:42:48.068Z,106.00
2023-01-09T19:45:15.388Z,114.30
2023-01-09T19:47:42.720Z,120.13
2023-01-09T19:50:10.342Z,88.77
2023-01-09T19:52:37.688Z,78.90
2023-01-09T19:55:05.734Z,75.97
2023-01-09T19:57:33.003Z,86.93
2023-01-09T20:00:00.354Z,113.23
2023-01-09T20:02:28.106Z,106.00
2023-01-09T20:04:55.575Z,136.00
2023-01-09T20:07:22.740Z,171.50
2023-01-09T20:09:49.941Z,144.60
2023-01-09T20:12:17.108Z,214.03
2023-01-09T20:14:45.280Z,176.53
2023-01-09T20:17:12.534Z,130.73
2023-01-09T20:19:39.763Z,87.77
2023-01-09T20:22:07.153Z,53.47
2023-01-09T20:24:34.355Z,69.70
2023-01-09T20:27:01.559Z,108.53
2023-01-09T20:29:29.286Z,123.43
2023-01-09T20:31:56.538Z,105.13
2023-01-09T20:34:23.792Z,132.00
2023-01-09T20:36:51.058Z,121.90
2023-01-09T20:39:18.410Z,122.23
2023-01-09T20:41:45.626Z,120.27
2023-01-09T20:44:14.239Z,109.47
2023-01-09T20:46:42.678Z,85.83
2023-01-09T20:49:12.277Z,62.90
2023-01-09T20:51:43.789Z,42.57
2023-01-09T20:54:10.971Z,40.03
2023-01-09T20:56:38.116Z,34.23
2023-01-09T20:59:06.468Z,33.30
2023-01-09T21:01:34.881Z,36.90
2023-01-09T21:04:03.142Z,42.50
2023-01-09T21:06:30.476Z,58.13
2023-01-09T21:08:57.682Z,53.37
2023-01-09T21:11:24.890Z,50.23
2023-01-09T21:13:52.572Z,48.43
2023-01-09T21:16:22.174Z,43.37
2023-01-09T21:18:49.888Z,51.57
2023-01-09T21:21:18.729Z,60.20
2023-01-09T21:23:51.830Z,63.20
2023-01-09T21:26:22.353Z,60.37
2023-01-09T21:28:49.985Z,68.90
2023-01-09T21:31:18.514Z,73.47
2023-01-09T21:33:46.147Z,82.87
2023-01-09T21:36:13.590Z,79.53
2023-01-09T21:38:41.016Z,69.97
2023-01-09T21:41:26.814Z,72.60
2023-01-09T21:44:12.628Z,72.10
2023-01-09T21:46:52.307Z,91.23
2023-01-09T21:49:25.257Z,77.30
2023-01-09T21:51:53.424Z,88.10
2023-01-09T21:54:20.804Z,84.93
2023-01-09T21:56:47.973Z,58.40
2023-01-09T21:59:16.734Z,53.13
2023-01-09T22:01:44.439Z,43.50
2023-01-09T22:04:15.349Z,45.50
2023-01-09T22:06:42.691Z,40.10
2023-01-09T22:09:10.220Z,42.43
2023-01-09T22:11:38.521Z,47.73
2023-01-09T22:14:05.727Z,50.73
2023-01-09T22:16:33.401Z,44.33
2023-01-09T22:19:03.907Z,47.27
2023-01-09T22:21:31.308Z,43.60
2023-01-09T22:24:01.614Z,50.17
2023-01-09T22:26:29.628Z,47.10
2023-01-09T22:28:57.082Z,44.67
2023-01-09T22:31:32.831Z,52.80
2023-01-09T22:34:02.328Z,48.63
2023-01-09T22:36:31.159Z,53.07
2023-01-09T22:38:59.843Z,50.90
2023-01-09T22:41:29.523Z,55.93
2023-01-09T22:43:56.729Z,56.57
2023-01-09T22:46:23.929Z,63.50
2023-01-09T22:48:51.434Z,56.80
2023-01-09T22:51:20.011Z,58.63
2023-01-09T22:53:47.664Z,53.90
2023-01-09T22:56:19.381Z,50.70
2023-01-09T22:58:50.909Z,45.37
2023-01-09T23:01:18.813Z,49.60
2023-01-09T23:03:46.105Z,59.27
2023-01-09T23:06:15.333Z,66.10
2023-01-09T23:08:42.982Z,107.93
2023-01-09T23:11:12.797Z,132.87
2023-01-09T23:13:40.424Z,116.80
2023-01-09T23:16:07.665Z,78.53
2023-01-09T23:18:35.192Z,65.67
2023-01-09T23:21:03.901Z,62.57
2023-01-09T23:23:32.139Z,53.00
2023-01-09T23:26:01.420Z,47.27
2023-01-09T23:28:30.651Z,42.83
2023-01-09T23:30:57.889Z,45.40
2023-01-09T23:33:25.083Z,45.50
2023-01-09T23:35:52.412Z,38.77
2023-01-09T23:38:20.552Z,43.20
2023-01-09T23:40:47.812Z,32.00
2023-01-09T23:43:15.572Z,36.50
2023-01-09T23:45:44.088Z,46.03
2023-01-09T23:48:12.809Z,51.03
2023-01-09T23:50:43.094Z,47.30
2023-01-09T23:53:10.289Z,44.03
2023-01-09T23:55:37.657Z,43.83
2023-01-09T23:58:04.811Z,34.10
